Time;durP1;ratioP1;P1;durP2;ratioP2;P2;SDS_P1;SDS_P2;PMS_P1;PMS_P2;Temp;Humidity;BMP_temperature;BMP_pressure;BME280_temperature;BME280_humidity;BME280_pressure;Samples;Min_cycle;Max_cycle;Signal;HPM_P1;HPM_P2
2023/03/01 00:01:57;;;;;;;17.42;12.13;;;-3276.60;89.20;;;;;;5046914;28;20086;-50
2023/03/01 00:04:24;;;;;;;20.05;15.02;;;-3276.60;89.10;;;;;;5036320;28;20370;-48
2023/03/01 00:06:49;;;;;;;21.33;15.00;;;-3276.50;89.10;;;;;;5045066;28;20017;-46
2023/03/01 00:09:16;;;;;;;21.23;14.02;;;-3276.50;88.90;;;;;;5033965;28;20029;-47
2023/03/01 00:11:43;;;;;;;18.83;13.45;;;-3276.50;89.20;;;;;;5033984;28;20112;-46
2023/03/01 00:14:12;;;;;;;17.83;13.88;;;-3276.50;89.10;;;;;;5034099;28;20446;-47
2023/03/01 00:16:45;;;;;;;21.48;16.40;;;-3276.40;89.10;;;;;;5057987;28;20052;-46
2023/03/01 00:19:19;;;;;;;22.38;15.05;;;-3276.40;89.00;;;;;;5036304;28;20025;-44
2023/03/01 00:21:46;;;;;;;24.42;15.85;;;-3276.50;89.10;;;;;;5053630;28;20059;-45
2023/03/01 00:24:18;;;;;;;20.02;15.82;;;-3276.40;89.10;;;;;;5053619;28;20033;-46
2023/03/01 00:26:52;;;;;;;24.27;15.82;;;-3276.40;89.00;;;;;;5066818;28;20426;-45
2023/03/01 00:29:18;;;;;;;33.05;22.77;;;-3276.50;89.30;;;;;;5038615;28;20040;-46
2023/03/01 00:31:46;;;;;;;32.38;21.25;;;-3276.50;89.30;;;;;;5071774;28;20063;-45
2023/03/01 00:34:14;;;;;;;29.30;20.13;;;-3276.50;89.40;;;;;;5073256;28;20082;-45
2023/03/01 00:36:41;;;;;;;28.00;18.48;;;-3276.50;89.40;;;;;;5072268;28;20077;-45
2023/03/01 00:39:14;;;;;;;30.08;19.30;;;-3276.40;89.40;;;;;;5067588;28;20021;-46
2023/03/01 00:41:44;;;;;;;31.08;22.02;;;-3276.40;89.20;;;;;;5035696;28;20439;-45
2023/03/01 00:44:10;;;;;;;30.92;21.27;;;-3276.40;89.30;;;;;;5053064;28;20021;-46
2023/03/01 00:46:38;;;;;;;25.75;18.48;;;-3276.40;89.40;;;;;;5064807;28;20408;-46
2023/03/01 00:49:06;;;;;;;23.58;16.27;;;-3276.30;89.50;;;;;;5067267;28;20017;-47
2023/03/01 00:51:42;;;;;;;25.65;18.83;;;-3276.30;89.50;;;;;;5053425;28;20025;-45
2023/03/01 00:54:10;;;;;;;21.02;15.52;;;-3276.30;89.20;;;;;;5053586;28;20033;-45
2023/03/01 00:56:40;;;;;;;21.55;15.38;;;-3276.30;89.30;;;;;;5043745;28;20105;-46
2023/03/01 00:59:07;;;;;;;20.42;15.82;;;-3276.20;89.30;;;;;;5073492;28;20052;-46
2023/03/01 01:01:35;;;;;;;16.83;14.02;;;-3276.10;89.40;;;;;;5071232;28;20056;-47
2023/03/01 01:04:05;;;;;;;16.88;13.82;;;-3276.10;89.40;;;;;;5059205;28;20052;-46
2023/03/01 01:06:35;;;;;;;17.52;13.95;;;-3276.10;89.50;;;;;;5046161;28;20090;-47
2023/03/01 01:09:04;;;;;;;17.17;13.40;;;-3276.00;89.50;;;;;;5059481;28;20021;-49
2023/03/01 01:11:31;;;;;;;17.63;13.65;;;-3276.00;89.70;;;;;;5035702;28;20021;-49
2023/03/01 01:13:58;;;;;;;16.60;13.18;;;-3276.00;89.70;;;;;;5053197;28;20649;-45
2023/03/01 01:16:28;;;;;;;16.50;13.48;;;-3276.00;89.80;;;;;;5036194;28;20053;-50
2023/03/01 01:18:57;;;;;;;16.00;13.13;;;-3275.90;89.80;;;;;;5053052;28;20044;-47
2023/03/01 01:21:26;;;;;;;17.88;13.85;;;-3275.90;90.10;;;;;;5035549;28;20085;-45
2023/03/01 01:23:53;;;;;;;17.92;12.60;;;-3275.90;90.10;;;;;;5052874;28;20087;-48
2023/03/01 01:26:35;;;;;;;16.67;13.32;;;-3276.00;90.20;;;;;;5043873;28;20040;-45
2023/03/01 01:29:04;;;;;;;15.07;12.82;;;-3275.90;90.10;;;;;;5024009;28;20060;-46
2023/03/01 01:31:32;;;;;;;16.35;12.48;;;-3275.80;89.90;;;;;;5070999;28;20124;-47
2023/03/01 01:34:00;;;;;;;16.50;12.85;;;-3275.80;89.90;;;;;;5041296;28;20052;-48
2023/03/01 01:36:26;;;;;;;14.35;10.90;;;-3275.80;89.80;;;;;;5042339;28;20433;-45
2023/03/01 01:38:54;;;;;;;15.43;11.35;;;-3275.80;89.80;;;;;;5052570;28;20057;-48
2023/03/01 01:41:22;;;;;;;14.30;11.48;;;-3275.80;89.90;;;;;;5052470;28;20052;-49
2023/03/01 01:44:28;;;;;;;18.52;11.73;;;-3275.70;89.80;;;;;;5057737;28;20457;-46
2023/03/01 01:47:17;;;;;;;15.98;11.93;;;-3275.70;90.00;;;;;;5061272;28;20032;-46
2023/03/01 01:49:45;;;;;;;;;;;-3275.70;90.10;;;;;;5055636;28;20060;-46
2023/03/01 01:52:29;;;;;;;13.20;10.55;;;-3275.70;90.20;;;;;;5054872;28;19915;-44
2023/03/01 01:55:11;;;;;;;16.05;11.68;;;-3275.60;90.20;;;;;;5067642;28;20029;-49
2023/03/01 01:57:58;;;;;;;16.45;11.95;;;-3275.60;90.10;;;;;;5051229;28;20044;-49
2023/03/01 02:00:28;;;;;;;16.73;12.23;;;-3275.60;90.20;;;;;;5035266;28;20033;-47
2023/03/01 02:03:24;;;;;;;14.50;11.32;;;-3275.60;90.30;;;;;;5050521;28;20140;-50
2023/03/01 02:06:20;;;;;;;14.45;11.07;;;-3275.60;90.40;;;;;;5052431;28;20037;-46
2023/03/01 02:08:55;;;;;;;14.95;11.45;;;-3275.60;90.40;;;;;;5052484;28;20021;-48
2023/03/01 02:11:22;;;;;;;15.88;12.00;;;-3275.60;90.40;;;;;;5058818;28;20033;-46
2023/03/01 02:13:50;;;;;;;17.20;13.35;;;-3275.60;90.50;;;;;;5070768;28;20024;-47
2023/03/01 02:16:16;;;;;;;18.55;12.23;;;-3275.60;90.40;;;;;;5039070;28;20068;-47
2023/03/01 02:18:44;;;;;;;14.43;11.40;;;-3275.60;90.50;;;;;;5055084;28;20033;-45
2023/03/01 02:21:28;;;;;;;17.85;12.98;;;-3275.60;90.20;;;;;;5056538;28;20044;-49
2023/03/01 02:23:57;;;;;;;20.15;12.90;;;-3275.60;90.30;;;;;;5056212;28;20037;-49
2023/03/01 02:26:56;;;;;;;22.88;14.63;;;-3275.60;90.40;;;;;;5056591;28;20057;-49
2023/03/01 02:29:26;;;;;;;27.20;17.23;;;-3275.60;90.20;;;;;;5005874;28;20039;-47
2023/03/01 02:31:59;;;;;;;29.00;16.92;;;-3275.50;90.10;;;;;;5058027;28;20368;-50
2023/03/01 02:34:28;;;;;;;33.25;16.88;;;-3275.50;90.20;;;;;;5076062;28;20039;-47
2023/03/01 02:37:14;;;;;;;36.42;16.80;;;-3275.50;90.30;;;;;;5042533;28;20036;-48
2023/03/01 02:39:47;;;;;;;30.30;15.38;;;-3275.50;90.30;;;;;;5044718;28;20086;-45
2023/03/01 02:42:22;;;;;;;29.10;17.20;;;-3275.50;90.40;;;;;;5008503;28;20491;-45
2023/03/01 02:44:54;;;;;;;30.48;17.13;;;-3275.50;90.40;;;;;;5038020;28;20029;-45
2023/03/01 02:47:21;;;;;;;33.08;14.70;;;-3275.50;90.30;;;;;;5056307;28;20031;-46
2023/03/01 02:49:52;;;;;;;31.50;17.05;;;-3275.40;90.30;;;;;;5058187;28;20394;-44
2023/03/01 02:52:48;;;;;;;23.48;14.63;;;-3275.40;90.30;;;;;;5075268;28;20032;-47
2023/03/01 02:55:19;;;;;;;29.80;17.50;;;-3275.40;90.20;;;;;;5074828;28;20028;-47
2023/03/01 02:57:50;;;;;;;29.08;17.48;;;-3275.30;90.20;;;;;;5075737;28;20050;-46
2023/03/01 03:00:45;;;;;;;25.83;15.35;;;-3275.30;90.30;;;;;;5063817;28;20055;-45
2023/03/01 03:03:19;;;;;;;28.15;17.45;;;-3275.30;90.30;;;;;;5030171;28;20041;-45
2023/03/01 03:05:47;;;;;;;25.85;15.45;;;-3275.30;90.30;;;;;;5037839;28;20488;-45
2023/03/01 03:08:23;;;;;;;29.10;16.88;;;-3275.20;90.40;;;;;;5055556;28;20033;-47
2023/03/01 03:10:49;;;;;;;24.95;15.93;;;-3275.20;90.40;;;;;;5039301;28;20033;-47
2023/03/01 03:13:17;;;;;;;23.73;16.65;;;-3275.20;90.40;;;;;;5051310;28;20034;-45
2023/03/01 03:15:47;;;;;;;30.63;18.90;;;-3275.20;90.50;;;;;;5075457;28;20477;-46
2023/03/01 03:18:16;;;;;;;31.20;22.33;;;-3275.20;90.50;;;;;;5068863;28;20434;-46
2023/03/01 03:20:46;;;;;;;40.22;25.48;;;-3275.20;90.40;;;;;;5053888;28;20438;-46
2023/03/01 03:23:13;;;;;;;28.92;20.25;;;-3275.20;90.50;;;;;;5068293;28;20063;-45
2023/03/01 03:25:40;;;;;;;21.13;13.93;;;-3275.20;90.30;;;;;;5041003;28;20047;-45
2023/03/01 03:28:11;;;;;;;19.23;11.15;;;-3275.10;90.30;;;;;;5057708;28;20501;-48
2023/03/01 03:30:43;;;;;;;20.55;11.60;;;-3275.10;90.30;;;;;;5038285;28;20033;-46
2023/03/01 03:33:16;;;;;;;18.20;11.43;;;-3275.00;90.30;;;;;;5047068;28;20036;-47
2023/03/01 03:35:45;;;;;;;21.05;10.90;;;-3275.00;90.30;;;;;;5054962;28;20033;-47
2023/03/01 03:38:18;;;;;;;15.05;10.02;;;-3275.00;90.40;;;;;;5037426;28;20041;-47
2023/03/01 03:41:07;;;;;;;13.98;9.57;;;-3275.00;90.50;;;;;;5046314;28;20055;-45
2023/03/01 03:43:37;;;;;;;17.38;9.80;;;-3275.10;90.50;;;;;;5047800;28;20043;-45
2023/03/01 03:46:05;;;;;;;18.05;10.55;;;-3275.00;90.50;;;;;;5036946;28;20450;-46
2023/03/01 03:48:39;;;;;;;18.85;13.02;;;-3275.00;90.70;;;;;;5067810;28;20330;-46
2023/03/01 03:51:09;;;;;;;23.30;11.48;;;-3275.00;90.70;;;;;;5053092;28;20037;-45
2023/03/01 03:53:36;;;;;;;17.25;10.77;;;-3274.90;90.70;;;;;;5054373;28;20025;-46
2023/03/01 03:56:03;;;;;;;14.88;10.65;;;-3274.90;90.70;;;;;;5054938;28;20036;-48
2023/03/01 03:58:29;;;;;;;22.15;11.52;;;-3275.00;90.70;;;;;;5067442;28;20469;-45
2023/03/01 04:00:57;;;;;;;22.55;12.30;;;-3274.90;90.40;;;;;;5071791;28;20037;-45
2023/03/01 04:03:27;;;;;;;15.77;9.70;;;-3274.90;90.40;;;;;;5045897;28;20039;-45
2023/03/01 04:05:56;;;;;;;20.65;11.30;;;-3274.90;90.50;;;;;;5056331;28;20029;-45
2023/03/01 04:08:24;;;;;;;17.27;11.60;;;-3274.90;90.40;;;;;;5038568;28;20029;-48
2023/03/01 04:13:47;;;;;;;22.10;11.30;;;-3275.00;90.70;;;;;;5073711;28;20465;-46
2023/03/01 04:16:13;;;;;;;31.33;11.73;;;-3275.00;90.70;;;;;;5073607;28;20056;-45
2023/03/01 04:18:42;;;;;;;32.20;11.45;;;-3275.00;91.00;;;;;;5052752;28;20533;-45
2023/03/01 04:21:11;;;;;;;21.38;10.63;;;-3275.00;91.00;;;;;;5052235;28;20382;-47
2023/03/01 04:23:40;;;;;;;17.50;11.60;;;-3275.00;91.10;;;;;;5054347;28;20354;-45
2023/03/01 04:26:11;;;;;;;24.50;11.02;;;-3275.10;91.20;;;;;;5053867;28;20381;-44
2023/03/01 04:28:42;;;;;;;16.40;10.75;;;-3275.10;91.20;;;;;;5049334;28;20354;-48
2023/03/01 04:31:17;;;;;;;16.83;11.52;;;-3275.10;91.20;;;;;;5057132;28;20028;-48
2023/03/01 04:33:54;;;;;;;15.48;10.77;;;-3275.10;91.10;;;;;;5040691;28;20044;-47
2023/03/01 04:36:26;;;;;;;17.92;12.98;;;-3275.10;91.10;;;;;;5056261;28;20044;-45
2023/03/01 04:38:58;;;;;;;18.90;11.05;;;-3275.10;91.00;;;;;;5053778;28;20492;-45
2023/03/01 04:41:28;;;;;;;17.55;11.52;;;-3275.10;91.00;;;;;;5073599;28;20039;-46
2023/03/01 04:43:59;;;;;;;17.13;9.43;;;-3275.10;91.10;;;;;;5055816;28;20067;-48
2023/03/01 04:46:27;;;;;;;24.67;10.93;;;-3275.00;91.00;;;;;;5053542;28;20028;-48
2023/03/01 04:48:55;;;;;;;19.65;9.05;;;-3275.10;91.00;;;;;;5063296;28;20017;-50
2023/03/01 04:51:22;;;;;;;40.05;11.13;;;-3275.00;91.00;;;;;;5071624;28;20021;-49
2023/03/01 04:53:51;;;;;;;20.20;9.02;;;-3275.00;91.00;;;;;;5053458;28;20036;-45
2023/03/01 04:56:19;;;;;;;19.17;10.40;;;-3275.00;91.10;;;;;;5053482;28;20033;-47
2023/03/01 04:58:47;;;;;;;13.57;9.77;;;-3275.00;91.00;;;;;;5063197;28;20032;-45
2023/03/01 05:01:17;;;;;;;21.52;10.77;;;-3274.90;91.00;;;;;;5071594;28;20051;-45
2023/03/01 05:03:55;;;;;;;22.92;9.25;;;-3274.90;90.90;;;;;;5042046;28;20040;-47
2023/03/01 05:06:22;;;;;;;40.15;11.23;;;-3274.90;90.90;;;;;;5067488;28;20500;-45
2023/03/01 05:08:49;;;;;;;16.02;8.77;;;-3274.90;91.10;;;;;;5062880;28;20107;-46
2023/03/01 05:11:16;;;;;;;16.15;9.23;;;-3274.80;90.90;;;;;;5035370;28;20048;-50
2023/03/01 05:13:43;;;;;;;16.88;9.35;;;-3274.90;91.00;;;;;;5053180;28;20043;-45
2023/03/01 05:16:16;;;;;;;28.60;9.70;;;-3274.80;91.00;;;;;;5052918;28;20055;-45
2023/03/01 05:18:43;;;;;;;24.75;9.13;;;-3274.80;91.00;;;;;;5060749;28;20024;-48
2023/03/01 05:21:15;;;;;;;39.97;9.88;;;-3274.80;91.00;;;;;;5073235;28;20028;-47
2023/03/01 05:23:49;;;;;;;31.15;9.15;;;-3274.70;90.80;;;;;;5038718;28;20044;-45
2023/03/01 05:26:17;;;;;;;16.50;7.95;;;-3274.80;91.10;;;;;;5036271;28;20458;-45
2023/03/01 05:28:44;;;;;;;17.25;8.93;;;-3274.80;91.00;;;;;;5019011;28;20116;-46
2023/03/01 05:31:13;;;;;;;61.33;10.23;;;-3274.70;90.90;;;;;;5061775;28;20029;-46
2023/03/01 05:33:41;;;;;;;32.83;9.20;;;-3274.70;91.00;;;;;;5052711;28;20031;-45
2023/03/01 05:36:10;;;;;;;14.07;9.27;;;-3274.70;91.00;;;;;;5052622;28;20036;-45
2023/03/01 05:38:37;;;;;;;26.98;9.23;;;-3274.60;91.10;;;;;;5072656;28;20016;-46
2023/03/01 05:41:04;;;;;;;19.05;8.95;;;-3274.70;91.30;;;;;;5065791;28;20021;-44
2023/03/01 05:43:36;;;;;;;12.77;8.05;;;-3274.60;91.00;;;;;;5071925;28;20158;-47
2023/03/01 05:46:13;;;;;;;42.90;9.38;;;-3274.70;91.20;;;;;;5060585;28;20040;-47
2023/03/01 05:48:40;;;;;;;49.13;10.82;;;-3274.70;91.20;;;;;;5055624;28;20117;-45
2023/03/01 05:51:10;;;;;;;18.95;8.43;;;-3274.70;91.30;;;;;;5050733;28;20514;-46
2023/03/01 05:53:36;;;;;;;16.98;10.32;;;-3274.70;91.30;;;;;;5034979;28;20037;-46
2023/03/01 05:56:04;;;;;;;19.70;10.40;;;-3274.70;91.40;;;;;;5052544;28;20078;-45
2023/03/01 05:58:30;;;;;;;16.42;10.15;;;-3274.70;91.40;;;;;;5051132;28;20032;-47
2023/03/01 06:01:00;;;;;;;15.52;9.30;;;-3274.70;91.50;;;;;;5048171;28;20416;-47
2023/03/01 06:03:27;;;;;;;25.17;9.05;;;-3274.70;91.50;;;;;;5063331;28;20020;-47
2023/03/01 06:06:00;;;;;;;21.50;10.65;;;-3274.70;91.30;;;;;;5070793;28;20170;-45
2023/03/01 06:08:28;;;;;;;16.90;9.60;;;-3274.70;91.40;;;;;;5053232;28;20039;-50
2023/03/01 06:10:58;;;;;;;16.52;8.80;;;-3274.70;91.40;;;;;;5071785;28;20505;-49
2023/03/01 06:13:26;;;;;;;17.42;10.80;;;-3274.70;91.50;;;;;;5062150;28;20618;-49
2023/03/01 06:15:52;;;;;;;18.63;10.38;;;-3274.60;91.50;;;;;;5052097;28;20451;-46
2023/03/01 06:18:23;;;;;;;17.15;10.15;;;-3274.70;91.60;;;;;;5056776;28;20034;-46
2023/03/01 06:20:54;;;;;;;18.85;11.00;;;-3274.70;91.50;;;;;;5061235;28;20035;-44
2023/03/01 06:23:25;;;;;;;20.55;10.75;;;-3274.70;91.40;;;;;;5035015;28;20037;-45
2023/03/01 06:25:51;;;;;;;18.55;11.32;;;-3274.70;91.30;;;;;;5034830;28;20033;-45
2023/03/01 06:28:17;;;;;;;18.77;12.13;;;-3274.70;91.30;;;;;;5053140;28;20040;-45
2023/03/01 06:30:47;;;;;;;18.13;9.43;;;-3274.60;91.20;;;;;;5037526;28;20064;-45
2023/03/01 06:33:15;;;;;;;16.35;9.55;;;-3274.60;91.30;;;;;;5052748;28;20028;-46
2023/03/01 06:35:42;;;;;;;20.08;10.27;;;-3274.70;91.20;;;;;;5034213;28;20041;-45
2023/03/01 06:38:07;;;;;;;18.70;9.73;;;-3274.70;91.10;;;;;;5052273;28;20033;-45
2023/03/01 06:40:36;;;;;;;25.67;11.00;;;-3274.60;91.10;;;;;;5053867;28;20039;-45
2023/03/01 06:43:01;;;;;;;17.02;10.00;;;-3274.70;91.10;;;;;;5059288;28;20033;-47
2023/03/01 06:45:30;;;;;;;18.40;10.40;;;-3274.70;91.20;;;;;;5052452;28;20025;-45
2023/03/01 06:48:08;;;;;;;18.42;9.45;;;-3274.70;91.30;;;;;;5035765;28;20086;-46
2023/03/01 06:50:38;;;;;;;18.77;9.75;;;-3274.80;91.20;;;;;;5050834;28;20060;-45
2023/03/01 06:53:06;;;;;;;18.75;10.18;;;-3274.80;91.10;;;;;;5054894;28;20039;-47
2023/03/01 06:55:34;;;;;;;21.70;9.45;;;-3274.80;90.90;;;;;;5072471;28;20068;-45
2023/03/01 06:58:03;;;;;;;15.43;8.55;;;-3274.80;91.00;;;;;;5075970;28;20107;-47
2023/03/01 07:00:29;;;;;;;15.27;9.07;;;-3274.80;91.00;;;;;;5038548;28;20032;-45
2023/03/01 07:02:59;;;;;;;18.17;8.75;;;-3274.90;91.10;;;;;;5075236;28;20033;-45
2023/03/01 07:05:25;;;;;;;15.30;9.27;;;-3274.90;90.80;;;;;;5035007;28;20041;-45
2023/03/01 07:07:56;;;;;;;17.35;10.60;;;-3274.90;90.80;;;;;;5038194;28;20103;-45
2023/03/01 07:10:22;;;;;;;16.08;8.85;;;-3275.00;90.80;;;;;;5065081;28;20025;-45
2023/03/01 07:12:48;;;;;;;16.00;9.30;;;-3275.00;90.90;;;;;;5041221;28;20039;-47
2023/03/01 07:15:19;;;;;;;19.75;10.10;;;-3275.10;90.90;;;;;;5057665;28;20473;-45
2023/03/01 07:17:49;;;;;;;19.40;9.95;;;-3275.10;90.70;;;;;;5053416;28;20124;-45
2023/03/01 07:20:22;;;;;;;12.85;7.10;;;-3275.10;90.70;;;;;;5068648;28;20041;-46
2023/03/01 07:22:51;;;;;;;17.20;7.55;;;-3275.10;90.60;;;;;;5039271;28;20108;-46
2023/03/01 07:25:22;;;;;;;14.23;9.25;;;-3275.20;90.60;;;;;;5037216;28;20032;-45
2023/03/01 07:27:52;;;;;;;20.75;10.60;;;-3275.30;90.70;;;;;;5055154;28;20029;-45
2023/03/01 07:30:22;;;;;;;13.65;8.10;;;-3275.40;90.70;;;;;;5064766;28;20033;-45
2023/03/01 07:32:49;;;;;;;;;;;-3275.40;90.60;;;;;;5056945;28;20021;-46
2023/03/01 07:35:16;;;;;;;15.10;8.63;;;-3275.50;90.60;;;;;;5065263;28;19916;-45
2023/03/01 07:37:46;;;;;;;13.93;7.15;;;-3275.50;90.50;;;;;;5057553;28;20115;-46
2023/03/01 07:40:12;;;;;;;17.00;8.65;;;-3275.60;90.50;;;;;;5074353;28;20477;-45
2023/03/01 07:42:40;;;;;;;13.38;7.85;;;-3275.60;90.40;;;;;;5062055;28;20032;-45
2023/03/01 07:45:08;;;;;;;18.10;7.75;;;-3275.80;90.60;;;;;;5037746;28;20083;-45
2023/03/01 07:47:36;;;;;;;13.85;7.82;;;-3275.80;90.50;;;;;;5054656;28;20033;-44
2023/03/01 07:50:03;;;;;;;12.93;7.45;;;-3275.90;90.50;;;;;;5044522;28;20031;-46
2023/03/01 07:52:33;;;;;;;13.57;7.53;;;-3276.10;90.60;;;;;;5041104;28;20060;-45
2023/03/01 07:55:00;;;;;;;12.10;7.25;;;-3276.20;90.30;;;;;;5073272;28;20032;-46
2023/03/01 07:57:26;;;;;;;15.27;8.43;;;-3276.40;90.40;;;;;;5054595;28;20025;-44
2023/03/01 07:59:52;;;;;;;17.45;8.60;;;-3276.50;90.20;;;;;;5054441;28;20424;-45
2023/03/01 08:02:20;;;;;;;17.48;9.95;;;-3276.60;89.90;;;;;;5072567;28;20438;-42
2023/03/01 08:04:48;;;;;;;16.40;8.60;;;0.00;89.90;;;;;;5051552;28;20457;-43
2023/03/01 08:07:15;;;;;;;15.27;9.10;;;0.00;89.50;;;;;;5069110;28;20164;-42
2023/03/01 08:09:41;;;;;;;16.92;10.00;;;0.20;89.80;;;;;;5074320;28;20421;-42
2023/03/01 08:12:08;;;;;;;16.00;10.40;;;0.40;89.10;;;;;;5074010;28;20095;-42
2023/03/01 08:14:35;;;;;;;16.55;9.00;;;0.50;89.10;;;;;;5054685;28;20025;-42
2023/03/01 08:17:05;;;;;;;17.05;9.88;;;0.70;88.90;;;;;;5073758;28;20525;-42
2023/03/01 08:19:33;;;;;;;14.90;9.75;;;1.00;89.10;;;;;;5053480;28;20021;-43
2023/03/01 08:22:01;;;;;;;14.60;9.05;;;1.30;89.00;;;;;;5074322;28;20044;-42
2023/03/01 08:24:31;;;;;;;10.95;8.25;;;1.70;88.70;;;;;;5055714;28;20039;-42
2023/03/01 08:26:57;;;;;;;16.27;11.02;;;1.80;87.90;;;;;;5059131;28;20068;-44
2023/03/01 08:29:26;;;;;;;13.15;8.10;;;2.00;87.10;;;;;;5054328;28;20024;-44
2023/03/01 08:31:53;;;;;;;10.95;7.18;;;2.20;86.70;;;;;;5036831;28;20498;-44
2023/03/01 08:34:22;;;;;;;13.13;7.15;;;2.20;86.00;;;;;;5059541;28;20032;-43
2023/03/01 08:36:53;;;;;;;10.70;6.60;;;2.30;86.40;;;;;;5056277;28;20044;-44
2023/03/01 08:39:22;;;;;;;10.85;6.35;;;2.50;86.30;;;;;;5073737;28;20508;-44
2023/03/01 08:41:47;;;;;;;11.63;5.95;;;2.70;86.00;;;;;;5054741;28;20112;-42
2023/03/01 08:44:16;;;;;;;11.73;6.70;;;2.90;85.90;;;;;;5059429;28;20155;-44
2023/03/01 08:46:45;;;;;;;11.63;6.80;;;3.00;85.10;;;;;;5064990;28;20025;-43
2023/03/01 08:49:15;;;;;;;12.90;7.57;;;3.40;85.10;;;;;;5056470;28;20539;-43
2023/03/01 08:51:42;;;;;;;11.20;6.25;;;3.60;84.70;;;;;;5020510;28;20116;-45
2023/03/01 08:54:19;;;;;;;12.68;7.65;;;3.80;84.40;;;;;;5061628;28;20025;-43
2023/03/01 08:56:50;;;;;;;12.73;7.95;;;4.00;84.10;;;;;;5020087;28;20513;-42
2023/03/01 08:59:19;;;;;;;12.93;7.70;;;4.20;83.80;;;;;;5053410;28;20454;-42
2023/03/01 09:01:46;;;;;;;13.93;7.65;;;4.30;83.40;;;;;;5019401;28;20128;-42
2023/03/01 09:04:24;;;;;;;12.95;8.35;;;4.50;84.10;;;;;;5055373;28;20035;-43
2023/03/01 09:06:52;;;;;;;15.32;9.52;;;4.70;83.10;;;;;;5066724;28;20429;-43
2023/03/01 09:09:18;;;;;;;16.30;9.80;;;4.90;83.50;;;;;;5042225;28;20111;-44
2023/03/01 09:11:49;;;;;;;15.27;9.85;;;5.00;83.00;;;;;;5069260;28;20048;-43
2023/03/01 09:14:20;;;;;;;13.73;9.82;;;5.20;82.60;;;;;;5053984;28;20017;-42
2023/03/01 09:16:49;;;;;;;13.07;9.27;;;5.40;82.40;;;;;;5050033;28;20136;-44
2023/03/01 09:19:15;;;;;;;17.00;9.95;;;5.70;82.30;;;;;;5063396;28;20029;-44
2023/03/01 09:21:51;;;;;;;15.38;10.43;;;5.90;82.30;;;;;;5039127;28;20033;-44
2023/03/01 09:24:21;;;;;;;14.13;10.40;;;6.00;83.00;;;;;;5073195;28;20503;-43
2023/03/01 09:26:49;;;;;;;16.23;11.80;;;6.20;82.10;;;;;;5053595;28;20388;-44
2023/03/01 09:29:16;;;;;;;14.13;9.55;;;6.40;82.60;;;;;;5068366;28;20021;-43
2023/03/01 09:31:45;;;;;;;12.68;9.30;;;6.50;80.60;;;;;;5035466;28;20446;-44
2023/03/01 09:34:15;;;;;;;11.65;9.48;;;6.50;80.30;;;;;;5053019;28;20035;-45
2023/03/01 09:36:44;;;;;;;12.70;10.63;;;6.60;79.30;;;;;;5070380;28;20449;-45
2023/03/01 09:39:09;;;;;;;13.77;11.32;;;6.80;80.00;;;;;;5056073;28;20029;-45
2023/03/01 09:42:15;;;;;;;12.60;10.63;;;6.90;79.70;;;;;;5052716;28;20029;-45
2023/03/01 09:45:11;;;;;;;13.45;10.80;;;7.30;80.30;;;;;;5005301;28;20029;-44
2023/03/01 09:47:38;;;;;;;12.43;10.23;;;7.40;79.50;;;;;;5010688;28;20136;-44
2023/03/01 09:50:22;;;;;;;18.05;12.90;;;7.40;76.80;;;;;;5006316;28;20089;-45
2023/03/01 09:53:10;;;;;;;18.20;13.15;;;7.60;74.80;;;;;;5010150;28;20645;-46
2023/03/01 09:55:43;;;;;;;21.95;14.68;;;7.80;76.70;;;;;;5011084;28;20038;-45
2023/03/01 09:58:34;;;;;;;17.10;12.93;;;7.90;76.50;;;;;;5009752;28;20115;-44
2023/03/01 10:01:10;;;;;;;12.55;10.38;;;8.20;76.00;;;;;;5010552;28;20038;-44
2023/03/01 10:03:47;;;;;;;12.38;11.07;;;8.20;75.70;;;;;;4994606;28;20077;-44
2023/03/01 10:06:31;;;;;;;12.35;9.75;;;8.30;76.00;;;;;;5010677;28;20056;-44
2023/03/01 10:09:12;;;;;;;12.85;11.15;;;8.30;75.70;;;;;;5010782;28;20772;-45
2023/03/01 10:11:44;;;;;;;15.82;11.07;;;8.30;74.80;;;;;;4996256;28;20034;-44
2023/03/01 10:14:48;;;;;;;14.50;10.98;;;8.30;74.80;;;;;;5010328;28;20116;-45
2023/03/01 10:17:44;;;;;;;13.15;8.85;;;8.40;75.00;;;;;;5010875;28;20530;-44
2023/03/01 10:20:53;;;;;;;12.73;8.30;;;8.20;75.00;;;;;;5048239;28;20029;-46
2023/03/01 10:23:22;;;;;;;10.57;7.95;;;8.10;75.80;;;;;;5008219;28;20124;-47
2023/03/01 10:25:59;;;;;;;10.77;7.90;;;8.10;76.40;;;;;;5071484;28;20020;-44
2023/03/01 10:28:47;;;;;;;11.07;8.20;;;8.00;76.00;;;;;;5070588;28;20029;-45
2023/03/01 10:31:27;;;;;;;11.75;7.80;;;7.90;75.50;;;;;;5071350;28;20037;-48
2023/03/01 10:33:56;;;;;;;12.35;8.15;;;8.00;75.40;;;;;;5039313;28;20041;-44
2023/03/01 10:36:26;;;;;;;8.65;6.43;;;7.90;75.00;;;;;;5074266;28;20033;-44
2023/03/01 10:39:10;;;;;;;11.38;8.48;;;7.70;75.30;;;;;;5075381;28;20032;-44
2023/03/01 10:42:01;;;;;;;10.95;7.20;;;7.90;76.30;;;;;;5021075;28;20076;-46
2023/03/01 10:44:45;;;;;;;9.65;8.07;;;7.50;76.10;;;;;;5023587;28;20037;-44
2023/03/01 10:47:20;;;;;;;10.30;8.23;;;7.30;77.20;;;;;;5037127;28;20036;-44
2023/03/01 10:50:00;;;;;;;11.77;7.72;;;7.40;78.00;;;;;;5045527;28;20024;-45
2023/03/01 10:52:34;;;;;;;8.90;7.25;;;7.40;77.90;;;;;;5055612;28;20012;-43
2023/03/01 10:55:22;;;;;;;10.32;6.95;;;7.40;77.10;;;;;;5038054;28;20037;-46
2023/03/01 10:57:48;;;;;;;11.38;8.65;;;7.40;77.30;;;;;;5054903;28;20698;-44
2023/03/01 11:00:44;;;;;;;10.35;7.65;;;7.50;78.40;;;;;;5056447;28;20041;-43
2023/03/01 11:03:17;;;;;;;12.18;7.13;;;7.90;77.70;;;;;;5064452;28;20024;-45
2023/03/01 11:06:20;;;;;;;9.07;6.90;;;8.10;76.40;;;;;;5033271;28;20544;-44
2023/03/01 11:09:12;;;;;;;12.57;9.70;;;8.00;75.40;;;;;;5075086;28;20052;-43
2023/03/01 11:11:41;;;;;;;34.53;25.20;;;7.80;76.40;;;;;;5038085;28;20370;-44
2023/03/01 11:14:27;;;;;;;25.38;19.45;;;7.60;77.40;;;;;;5061866;28;20036;-44
2023/03/01 11:17:12;;;;;;;14.18;9.98;;;7.50;78.50;;;;;;5072359;28;20119;-44
2023/03/01 11:19:38;;;;;;;10.32;7.93;;;7.60;77.80;;;;;;5022891;28;20109;-44
2023/03/01 11:22:22;;;;;;;10.75;7.60;;;7.50;78.00;;;;;;5057025;28;20052;-45
2023/03/01 11:24:52;;;;;;;22.88;19.38;;;7.50;77.20;;;;;;5074709;28;20158;-46
2023/03/01 11:27:40;;;;;;;13.50;10.85;;;7.20;75.80;;;;;;5074901;28;20025;-45
2023/03/01 11:30:15;;;;;;;13.20;9.10;;;7.10;77.10;;;;;;5037964;28;20044;-43
2023/03/01 11:33:02;;;;;;;12.90;9.43;;;7.20;77.40;;;;;;5062641;28;20339;-44
2023/03/01 11:35:30;;;;;;;11.65;8.05;;;7.20;76.60;;;;;;5039780;28;20033;-44
2023/03/01 11:37:58;;;;;;;133.32;89.90;;;7.40;77.40;;;;;;5037291;28;20020;-47
2023/03/01 11:40:51;;;;;;;16.02;13.77;;;7.50;76.70;;;;;;5054697;28;20036;-45
2023/03/01 11:43:53;;;;;;;11.32;9.32;;;7.50;77.40;;;;;;5047047;28;20036;-44
2023/03/01 11:46:44;;;;;;;13.15;10.25;;;7.50;75.90;;;;;;5057294;28;20021;-44
2023/03/01 11:49:22;;;;;;;16.55;12.15;;;7.50;76.30;;;;;;5044792;28;20365;-45
2023/03/01 11:51:59;;;;;;;17.10;13.13;;;7.70;76.40;;;;;;5071948;28;20100;-49
2023/03/01 11:54:43;;;;;;;14.38;11.30;;;7.80;75.40;;;;;;5056387;28;20449;-47
2023/03/01 11:57:36;;;;;;;13.30;10.07;;;7.90;76.60;;;;;;5037168;28;20120;-44
2023/03/01 12:00:26;;;;;;;12.68;11.32;;;7.70;75.50;;;;;;5057947;28;20031;-44
2023/03/01 12:03:46;;;;;;;12.75;9.98;;;7.60;75.20;;;;;;5054478;28;20036;-44
2023/03/01 12:06:27;;;;;;;17.17;10.55;;;7.70;76.10;;;;;;4973734;28;20507;-44
2023/03/01 12:09:20;;;;;;;13.98;10.95;;;7.60;76.40;;;;;;5047916;28;20338;-43
2023/03/01 12:12:20;;;;;;;13.68;11.80;;;7.60;76.20;;;;;;5068366;28;20024;-44
2023/03/01 12:14:50;;;;;;;;;;;7.70;76.50;;;;;;5056489;28;20025;-45
2023/03/01 12:17:36;;;;;;;;;;;7.60;77.30;;;;;;5074337;28;19904;-45
2023/03/01 12:20:42;;;;;;;14.93;10.75;;;7.50;76.90;;;;;;5064683;28;20266;-44
2023/03/01 12:23:47;;;;;;;16.42;11.75;;;7.20;77.20;;;;;;5073351;28;20342;-45
2023/03/01 12:26:43;;;;;;;12.57;10.45;;;7.10;77.70;;;;;;5054156;28;20078;-45
2023/03/01 12:29:23;;;;;;;14.75;11.52;;;7.10;77.90;;;;;;5056949;28;20362;-44
2023/03/01 12:32:26;;;;;;;12.43;11.13;;;6.90;78.60;;;;;;5051956;28;20021;-45
2023/03/01 12:35:40;;;;;;;13.45;11.40;;;6.90;78.50;;;;;;5060832;28;20024;-44
2023/03/01 12:38:22;;;;;;;11.48;10.27;;;6.90;79.70;;;;;;5050692;28;20079;-44
2023/03/01 12:41:25;;;;;;;12.48;11.18;;;6.90;78.50;;;;;;5051900;28;20093;-45
2023/03/01 12:44:31;;;;;;;13.18;10.77;;;6.80;79.10;;;;;;5073561;28;20036;-45
2023/03/01 12:47:04;;;;;;;11.95;10.57;;;6.70;78.50;;;;;;5066786;28;20032;-44
2023/03/01 12:49:44;;;;;;;14.52;10.60;;;6.60;79.30;;;;;;5054646;28;20039;-47
2023/03/01 12:52:23;;;;;;;14.18;11.18;;;6.80;79.10;;;;;;5039216;28;20647;-44
2023/03/01 12:54:54;;;;;;;16.08;10.65;;;6.90;78.80;;;;;;5053372;28;20029;-44